createdAt,value
2019-05-21T00:00:31.426Z,14.30
2019-05-21T00:01:35.983Z,14.40
2019-05-21T00:02:42.136Z,14.40
2019-05-21T00:03:46.830Z,14.30
2019-05-21T00:04:52.039Z,14.30
2019-05-21T00:05:57.739Z,14.30
2019-05-21T00:07:02.931Z,14.30
2019-05-21T00:08:07.492Z,14.30
2019-05-21T00:09:12.657Z,14.30
2019-05-21T00:10:17.274Z,14.30
2019-05-21T00:11:22.419Z,14.30
2019-05-21T00:12:27.269Z,14.30
2019-05-21T00:13:32.381Z,14.30
2019-05-21T00:14:36.981Z,14.30
2019-05-21T00:15:42.112Z,14.30
2019-05-21T00:16:46.680Z,14.30
2019-05-21T00:17:52.071Z,14.30
2019-05-21T00:18:56.705Z,14.30
2019-05-21T00:20:01.856Z,14.30
2019-05-21T00:21:06.412Z,14.20
2019-05-21T00:22:11.506Z,14.20
2019-05-21T00:23:16.076Z,14.20
2019-05-21T00:24:21.219Z,14.20
2019-05-21T00:25:26.538Z,14.20
2019-05-21T00:26:31.643Z,14.20
2019-05-21T00:27:36.200Z,14.20
2019-05-21T00:28:40.193Z,14.20
2019-05-21T00:30:21.268Z,14.20
2019-05-21T00:32:02.385Z,14.20
2019-05-21T00:33:43.285Z,14.20
2019-05-21T00:35:25.578Z,14.20
2019-05-21T00:37:08.174Z,14.10
2019-05-21T00:38:51.890Z,14.10
2019-05-21T00:40:31.933Z,14.10
2019-05-21T00:42:01.450Z,14.10
2019-05-21T00:43:07.614Z,14.00
2019-05-21T00:44:12.766Z,14.00
2019-05-21T00:45:17.353Z,14.00
2019-05-21T00:46:22.538Z,14.00
2019-05-21T00:47:27.365Z,14.00
2019-05-21T00:48:32.679Z,14.00
2019-05-21T00:49:37.344Z,14.00
2019-05-21T00:50:42.487Z,14.00
2019-05-21T00:51:47.039Z,14.00
2019-05-21T00:52:52.257Z,14.00
2019-05-21T00:53:56.820Z,14.00
2019-05-21T00:55:02.044Z,14.00
2019-05-21T00:56:06.718Z,14.00
2019-05-21T00:57:11.993Z,13.90
2019-05-21T00:58:16.698Z,13.90
2019-05-21T00:59:21.862Z,13.90
2019-05-21T01:00:26.397Z,13.90
2019-05-21T01:01:31.497Z,13.90
2019-05-21T01:02:36.047Z,13.90
2019-05-21T01:03:43.270Z,13.80
2019-05-21T01:04:59.702Z,13.80
2019-05-21T01:05:54.244Z,13.80
2019-05-21T01:06:58.792Z,13.80
2019-05-21T01:08:05.155Z,13.80
2019-05-21T01:09:09.852Z,13.80
2019-05-21T01:10:15.136Z,13.80
2019-05-21T01:11:19.730Z,13.80
2019-05-21T01:12:24.902Z,13.80
2019-05-21T01:13:29.469Z,13.80
2019-05-21T01:14:34.655Z,13.70
2019-05-21T01:15:39.235Z,13.70
2019-05-21T01:16:44.420Z,13.70
2019-05-21T01:17:49.273Z,13.80
2019-05-21T01:18:54.583Z,13.80
2019-05-21T01:19:59.161Z,13.70
2019-05-21T01:21:05.660Z,13.70
2019-05-21T01:22:10.231Z,13.70
2019-05-21T01:23:15.401Z,13.70
2019-05-21T01:24:19.963Z,13.70
2019-05-21T01:25:25.067Z,13.70
2019-05-21T01:26:29.712Z,13.70
2019-05-21T01:27:34.819Z,13.70
2019-05-21T01:28:39.525Z,13.70
2019-05-21T01:29:44.652Z,13.70
2019-05-21T01:30:49.397Z,13.60
2019-05-21T01:31:54.528Z,13.60
2019-05-21T01:32:59.087Z,13.70
2019-05-21T01:34:04.207Z,13.60
2019-05-21T01:35:17.244Z,13.60
2019-05-21T01:36:15.792Z,13.60
2019-05-21T01:37:20.353Z,13.60
2019-05-21T01:38:25.520Z,13.60
2019-05-21T01:39:30.067Z,13.60
2019-05-21T01:40:35.223Z,13.60
2019-05-21T01:41:39.796Z,13.60
2019-05-21T01:42:44.901Z,13.60
2019-05-21T01:43:49.519Z,13.50
2019-05-21T01:44:54.648Z,13.50
2019-05-21T01:46:11.712Z,13.50
2019-05-21T01:47:16.851Z,13.50
2019-05-21T01:48:21.431Z,13.50
2019-05-21T01:49:26.547Z,13.50
2019-05-21T01:50:31.086Z,13.50
2019-05-21T01:51:36.264Z,13.50
2019-05-21T01:52:40.846Z,13.50
2019-05-21T01:53:46.036Z,13.50
2019-05-21T01:54:50.750Z,13.50
2019-05-21T01:55:55.844Z,13.40
2019-05-21T01:57:00.419Z,13.40
2019-05-21T01:58:05.825Z,13.40
2019-05-21T01:59:11.423Z,13.40
2019-05-21T02:00:16.803Z,13.40
2019-05-21T02:01:21.358Z,13.40
2019-05-21T02:02:26.508Z,13.40
2019-05-21T02:03:32.158Z,13.40
2019-05-21T02:04:37.393Z,13.40
2019-05-21T02:05:41.981Z,13.40
2019-05-21T02:06:49.311Z,13.40
2019-05-21T02:07:53.703Z,13.40
2019-05-21T02:08:58.809Z,13.40
2019-05-21T02:10:03.658Z,13.30
2019-05-21T02:11:08.764Z,13.30
2019-05-21T02:12:13.367Z,13.40
2019-05-21T02:13:18.479Z,13.40
2019-05-21T02:14:23.096Z,13.30
2019-05-21T02:15:28.254Z,13.30
2019-05-21T02:16:32.871Z,13.30
2019-05-21T02:17:37.962Z,13.30
2019-05-21T02:18:42.612Z,13.30
2019-05-21T02:19:47.754Z,13.30
2019-05-21T02:20:52.351Z,13.30
2019-05-21T02:21:57.450Z,13.20
2019-05-21T02:23:01.999Z,13.20
2019-05-21T02:24:07.114Z,13.20
2019-05-21T02:25:12.701Z,13.20
2019-05-21T02:26:18.901Z,13.20
2019-05-21T02:27:23.471Z,13.20
2019-05-21T02:28:28.642Z,13.20
2019-05-21T02:29:33.184Z,13.20
2019-05-21T02:30:38.421Z,13.20
2019-05-21T02:31:43.016Z,13.20
2019-05-21T02:32:48.136Z,13.20
2019-05-21T02:33:52.719Z,13.20
2019-05-21T02:34:57.889Z,13.10
2019-05-21T02:36:02.585Z,13.10
2019-05-21T02:37:07.669Z,13.10
2019-05-21T02:38:12.310Z,13.10
2019-05-21T02:39:17.470Z,13.10
2019-05-21T02:40:22.438Z,13.10
2019-05-21T02:41:27.539Z,13.10
2019-05-21T02:42:32.158Z,13.10
2019-05-21T02:43:38.332Z,13.10
2019-05-21T02:44:42.869Z,13.10
2019-05-21T02:45:48.000Z,13.20
2019-05-21T02:46:52.639Z,13.10
2019-05-21T02:47:57.822Z,13.10
2019-05-21T02:49:02.500Z,13.10
2019-05-21T02:50:08.255Z,13.10
2019-05-21T02:51:12.855Z,13.00
2019-05-21T02:52:17.963Z,13.00
2019-05-21T02:53:22.499Z,13.00
2019-05-21T02:54:39.960Z,13.10
2019-05-21T02:55:33.863Z,13.00
2019-05-21T02:56:38.951Z,13.00
2019-05-21T02:57:43.519Z,13.00
2019-05-21T02:58:48.632Z,13.00
2019-05-21T02:59:55.330Z,13.00
2019-05-21T03:01:21.821Z,13.00
2019-05-21T03:02:34.866Z,13.00
2019-05-21T03:03:39.987Z,13.00
2019-05-21T03:04:44.544Z,13.00
2019-05-21T03:05:49.649Z,13.00
2019-05-21T03:06:56.244Z,12.90
2019-05-21T03:08:01.347Z,13.00
2019-05-21T03:09:06.627Z,12.90
2019-05-21T03:10:11.872Z,12.90
2019-05-21T03:11:17.617Z,12.90
2019-05-21T03:12:22.826Z,12.90
2019-05-21T03:13:27.438Z,12.90
2019-05-21T03:14:33.605Z,12.90
2019-05-21T03:15:38.175Z,12.90
2019-05-21T03:16:43.372Z,12.80
2019-05-21T03:17:47.935Z,12.90
2019-05-21T03:18:53.157Z,12.90
2019-05-21T03:19:57.736Z,12.80
2019-05-21T03:21:03.926Z,12.80
2019-05-21T03:22:08.545Z,12.80
2019-05-21T03:23:13.668Z,12.80
2019-05-21T03:24:18.270Z,12.80
2019-05-21T03:25:23.457Z,12.80
2019-05-21T03:26:28.190Z,12.80
2019-05-21T03:27:33.336Z,12.80
2019-05-21T03:28:37.878Z,12.80
2019-05-21T03:29:43.049Z,12.80
2019-05-21T03:30:47.642Z,12.70
2019-05-21T03:31:52.764Z,12.80
2019-05-21T03:32:57.364Z,12.80
2019-05-21T03:34:02.618Z,12.80
2019-05-21T03:35:08.077Z,12.80
2019-05-21T03:36:29.683Z,12.80
2019-05-21T03:37:19.629Z,12.80
2019-05-21T03:38:24.754Z,12.80
2019-05-21T03:39:30.266Z,12.80
2019-05-21T03:40:35.507Z,12.90
2019-05-21T03:41:40.092Z,12.90
2019-05-21T03:42:45.411Z,12.90
2019-05-21T03:43:49.968Z,12.90
2019-05-21T03:44:59.556Z,12.90
2019-05-21T03:46:01.358Z,12.90
2019-05-21T03:47:06.489Z,12.90
2019-05-21T03:48:11.132Z,12.90
2019-05-21T03:49:16.415Z,12.90
2019-05-21T03:50:21.016Z,12.90
2019-05-21T03:51:26.115Z,12.90
2019-05-21T03:52:30.707Z,13.00
2019-05-21T03:53:35.944Z,13.00
2019-05-21T03:54:41.328Z,13.00
2019-05-21T03:55:46.463Z,13.00
2019-05-21T03:56:51.082Z,13.00
2019-05-21T03:57:56.301Z,13.00
2019-05-21T03:59:00.966Z,13.00
2019-05-21T04:00:12.606Z,13.10
2019-05-21T04:01:26.489Z,13.10
2019-05-21T04:02:33.461Z,13.10
2019-05-21T04:03:45.767Z,13.20
2019-05-21T04:04:55.199Z,13.10
2019-05-21T04:05:59.740Z,13.20
2019-05-21T04:07:05.916Z,13.20
2019-05-21T04:08:10.536Z,13.20
2019-05-21T04:09:15.700Z,13.20
2019-05-21T04:10:20.850Z,13.20
2019-05-21T04:11:26.989Z,13.20
2019-05-21T04:12:31.579Z,13.20
2019-05-21T04:13:37.667Z,13.30
2019-05-21T04:14:46.587Z,13.30
2019-05-21T04:16:15.125Z,13.30
2019-05-21T04:17:35.935Z,13.30
2019-05-21T04:19:08.773Z,13.20
2019-05-21T04:20:13.592Z,13.30
2019-05-21T04:21:19.151Z,13.30
2019-05-21T04:22:25.001Z,13.30
2019-05-21T04:23:30.125Z,13.30
2019-05-21T04:24:34.701Z,13.30
2019-05-21T04:25:39.804Z,13.30
2019-05-21T04:26:44.391Z,13.40
2019-05-21T04:27:49.568Z,13.40
2019-05-21T04:28:54.247Z,13.40
2019-05-21T04:30:02.563Z,13.30
2019-05-21T04:31:08.325Z,13.40
2019-05-21T04:32:13.472Z,13.40
2019-05-21T04:33:18.129Z,13.40
2019-05-21T04:34:23.326Z,13.40
2019-05-21T04:35:27.901Z,13.40
2019-05-21T04:36:33.030Z,13.40
2019-05-21T04:37:37.614Z,13.50
2019-05-21T04:38:42.765Z,13.50
2019-05-21T04:39:47.552Z,13.50
2019-05-21T04:40:52.863Z,13.50
2019-05-21T04:41:57.518Z,13.50
2019-05-21T04:43:05.414Z,13.60
2019-05-21T04:44:10.023Z,13.60
2019-05-21T04:45:15.325Z,13.60
2019-05-21T04:46:19.912Z,13.60
2019-05-21T04:47:25.100Z,13.70
2019-05-21T04:48:29.764Z,13.70
2019-05-21T04:49:34.967Z,13.70
2019-05-21T04:50:40.491Z,13.80
2019-05-21T04:51:46.678Z,13.80
2019-05-21T04:52:51.306Z,13.80
2019-05-21T04:53:56.395Z,13.90
2019-05-21T04:55:00.962Z,13.90
2019-05-21T04:56:06.079Z,13.90
2019-05-21T04:57:10.632Z,13.90
2019-05-21T04:58:15.770Z,13.90
2019-05-21T04:59:20.353Z,13.90
2019-05-21T05:00:26.028Z,13.90
2019-05-21T05:01:30.611Z,14.00
2019-05-21T05:02:35.751Z,14.00
2019-05-21T05:03:40.651Z,14.00
2019-05-21T05:04:45.838Z,14.10
2019-05-21T05:05:51.434Z,14.00
2019-05-21T05:06:56.523Z,14.10
2019-05-21T05:08:01.096Z,14.10
2019-05-21T05:09:07.363Z,14.20
2019-05-21T05:10:12.304Z,14.20
2019-05-21T05:11:17.509Z,14.30
2019-05-21T05:12:22.096Z,14.30
2019-05-21T05:13:27.352Z,14.30
2019-05-21T05:14:31.969Z,14.30
2019-05-21T05:15:37.075Z,14.40
2019-05-21T05:16:41.674Z,14.40
2019-05-21T05:17:46.884Z,14.40
2019-05-21T05:18:51.563Z,14.40
2019-05-21T05:19:57.278Z,14.40
2019-05-21T05:21:01.899Z,14.50
2019-05-21T05:22:07.120Z,14.50
2019-05-21T05:23:11.859Z,14.50
2019-05-21T05:24:18.110Z,14.50
2019-05-21T05:25:22.764Z,14.50
2019-05-21T05:26:27.951Z,14.60
2019-05-21T05:27:32.564Z,14.60
2019-05-21T05:28:37.751Z,14.70
2019-05-21T05:29:42.400Z,14.70
2019-05-21T05:30:47.543Z,14.80
2019-05-21T05:31:52.102Z,14.90
2019-05-21T05:32:57.324Z,14.90
2019-05-21T05:34:02.047Z,14.90
2019-05-21T05:35:07.388Z,14.90
2019-05-21T05:36:12.030Z,14.90
2019-05-21T05:37:17.160Z,14.90
2019-05-21T05:38:21.738Z,14.90
2019-05-21T05:39:27.004Z,15.00
2019-05-21T05:40:31.628Z,15.00
2019-05-21T05:41:36.817Z,15.10
2019-05-21T05:42:41.373Z,15.20
2019-05-21T05:43:46.543Z,15.30
2019-05-21T05:44:51.162Z,15.30
2019-05-21T05:45:56.338Z,15.30
2019-05-21T05:47:00.958Z,15.30
2019-05-21T05:48:06.299Z,15.30
2019-05-21T05:49:16.421Z,15.40
2019-05-21T05:50:23.791Z,15.40
2019-05-21T05:51:28.367Z,15.50
2019-05-21T05:52:33.520Z,15.60
2019-05-21T05:53:56.839Z,15.70
2019-05-21T05:55:02.075Z,15.70
2019-05-21T05:56:06.651Z,15.90
2019-05-21T05:57:12.189Z,16.00
2019-05-21T05:58:16.867Z,16.10
2019-05-21T05:59:22.045Z,16.20
2019-05-21T06:00:26.698Z,16.30
2019-05-21T06:01:33.039Z,16.50
2019-05-21T06:02:37.620Z,16.70
2019-05-21T06:03:42.716Z,17.00
2019-05-21T06:04:47.326Z,17.40
2019-05-21T06:05:52.526Z,17.70
2019-05-21T06:06:57.267Z,18.00
2019-05-21T06:08:02.655Z,18.20
2019-05-21T06:09:07.472Z,18.30
2019-05-21T06:10:13.045Z,18.50
2019-05-21T06:11:17.747Z,18.80
2019-05-21T06:12:22.938Z,19.10
2019-05-21T06:13:27.643Z,19.20
2019-05-21T06:14:32.758Z,19.30
2019-05-21T06:15:37.467Z,19.50
2019-05-21T06:16:42.617Z,19.50
2019-05-21T06:17:47.370Z,19.80
2019-05-21T06:18:52.527Z,20.10
2019-05-21T06:19:57.945Z,20.30
2019-05-21T06:21:03.110Z,20.60
2019-05-21T06:22:07.721Z,20.70
2019-05-21T06:23:12.933Z,20.90
2019-05-21T06:24:17.677Z,21.10
2019-05-21T06:25:23.052Z,21.30
2019-05-21T06:26:27.720Z,21.50
2019-05-21T06:27:32.864Z,21.70
2019-05-21T06:28:37.476Z,21.80
2019-05-21T06:29:42.607Z,22.00
2019-05-21T06:30:47.267Z,22.10
2019-05-21T06:31:52.392Z,22.10
2019-05-21T06:32:56.971Z,22.30
2019-05-21T06:34:02.191Z,22.40
2019-05-21T06:35:07.413Z,22.50
2019-05-21T06:36:12.626Z,22.60
2019-05-21T06:37:17.450Z,22.70
2019-05-21T06:38:22.563Z,22.40
2019-05-21T06:39:27.144Z,22.30
2019-05-21T06:40:32.468Z,22.30
2019-05-21T06:41:37.049Z,22.30
2019-05-21T06:42:42.239Z,22.30
2019-05-21T06:43:46.868Z,22.20
2019-05-21T06:44:52.039Z,22.40
2019-05-21T06:45:56.703Z,22.70
2019-05-21T06:47:01.955Z,23.00
2019-05-21T06:48:07.772Z,23.20
2019-05-21T06:49:12.915Z,23.40
2019-05-21T06:50:18.187Z,23.30
2019-05-21T06:51:23.390Z,23.10
2019-05-21T06:52:28.034Z,23.30
2019-05-21T06:53:33.182Z,23.60
2019-05-21T06:54:37.984Z,23.90
2019-05-21T06:55:43.178Z,24.30
2019-05-21T06:56:47.825Z,24.60
2019-05-21T06:57:53.019Z,24.80
2019-05-21T06:58:57.602Z,24.90
2019-05-21T07:00:03.875Z,24.80
2019-05-21T07:01:08.569Z,24.60
2019-05-21T07:02:13.865Z,24.60
2019-05-21T07:03:18.490Z,24.50
2019-05-21T07:04:23.734Z,24.80
2019-05-21T07:05:28.325Z,25.00
2019-05-21T07:06:33.493Z,25.10
2019-05-21T07:07:38.138Z,25.20
2019-05-21T07:08:43.276Z,25.40
2019-05-21T07:09:47.879Z,25.70
2019-05-21T07:10:53.068Z,25.80
2019-05-21T07:11:57.738Z,25.80
2019-05-21T07:13:02.870Z,25.80
2019-05-21T07:14:07.511Z,26.00
2019-05-21T07:15:13.300Z,25.80
2019-05-21T07:16:17.863Z,25.90
2019-05-21T07:17:23.055Z,25.80
2019-05-21T07:18:27.696Z,26.00
2019-05-21T07:19:32.786Z,26.30
2019-05-21T07:20:37.586Z,26.30
2019-05-21T07:21:42.751Z,26.00
2019-05-21T07:22:47.389Z,25.90
2019-05-21T07:23:52.623Z,25.90
2019-05-21T07:24:57.227Z,25.80
2019-05-21T07:26:02.386Z,25.90
2019-05-21T07:27:07.112Z,25.90
2019-05-21T07:28:12.210Z,25.70
2019-05-21T07:29:16.835Z,25.30
2019-05-21T07:30:21.970Z,25.40
2019-05-21T07:31:26.624Z,25.50
2019-05-21T07:32:31.739Z,25.70
2019-05-21T07:33:36.300Z,25.80
2019-05-21T07:34:41.442Z,25.60
2019-05-21T07:35:46.142Z,25.60
2019-05-21T07:36:51.274Z,25.50
2019-05-21T07:37:55.923Z,25.90
2019-05-21T07:39:01.088Z,26.10
2019-05-21T07:40:08.592Z,26.40
2019-05-21T07:41:13.715Z,26.40
2019-05-21T07:42:18.321Z,26.70
2019-05-21T07:43:23.498Z,27.00
2019-05-21T07:44:28.072Z,27.30
2019-05-21T07:45:33.270Z,27.20
2019-05-21T07:46:39.860Z,27.10
2019-05-21T07:47:45.280Z,27.10
2019-05-21T07:48:49.815Z,27.10
2019-05-21T07:49:55.079Z,27.10
2019-05-21T07:50:59.927Z,27.20
2019-05-21T07:52:05.317Z,27.20
2019-05-21T07:53:10.032Z,27.50
2019-05-21T07:54:28.169Z,27.70
2019-05-21T07:55:33.006Z,27.40
2019-05-21T07:56:38.165Z,27.20
2019-05-21T07:57:42.807Z,27.30
2019-05-21T07:58:47.914Z,27.40
2019-05-21T07:59:52.553Z,27.40
2019-05-21T08:01:01.028Z,27.00
2019-05-21T08:02:03.894Z,26.70
2019-05-21T08:03:09.016Z,26.60
2019-05-21T08:04:13.560Z,26.70
2019-05-21T08:05:18.860Z,26.80
2019-05-21T08:06:23.399Z,27.00
2019-05-21T08:07:28.500Z,27.30
2019-05-21T08:08:33.062Z,27.70
2019-05-21T08:09:38.241Z,28.00
2019-05-21T08:10:42.829Z,28.00
2019-05-21T08:11:48.032Z,27.70
2019-05-21T08:12:52.627Z,27.70
2019-05-21T08:13:57.926Z,27.60
2019-05-21T08:15:02.534Z,27.60
2019-05-21T08:16:09.307Z,27.90
2019-05-21T08:17:13.865Z,28.00
2019-05-21T08:18:19.139Z,28.10
2019-05-21T08:19:23.730Z,28.20
2019-05-21T08:20:29.298Z,27.80
2019-05-21T08:21:33.908Z,27.80
2019-05-21T08:22:39.063Z,27.60
2019-05-21T08:23:43.763Z,27.30
2019-05-21T08:24:48.883Z,27.00
2019-05-21T08:25:53.416Z,27.30
2019-05-21T08:26:58.526Z,27.50
2019-05-21T08:28:03.464Z,28.00
2019-05-21T08:29:08.642Z,28.00
2019-05-21T08:30:14.010Z,28.10
2019-05-21T08:31:19.149Z,27.90
2019-05-21T08:32:23.718Z,28.00
2019-05-21T08:33:29.203Z,28.30
2019-05-21T08:34:33.817Z,28.60
2019-05-21T08:35:38.954Z,28.50
2019-05-21T08:36:43.491Z,28.30
2019-05-21T08:37:48.638Z,28.10
2019-05-21T08:38:53.205Z,28.00
2019-05-21T08:39:58.453Z,27.50
2019-05-21T08:41:03.095Z,27.20
2019-05-21T08:42:08.266Z,27.40
2019-05-21T08:43:12.951Z,27.60
2019-05-21T08:44:18.125Z,27.50
2019-05-21T08:45:22.713Z,27.20
2019-05-21T08:46:27.888Z,26.70
2019-05-21T08:47:32.522Z,26.40
2019-05-21T08:48:37.620Z,26.10
2019-05-21T08:49:44.284Z,26.10
2019-05-21T08:50:49.063Z,26.10
2019-05-21T08:52:05.597Z,25.80
2019-05-21T08:53:10.764Z,25.50
2019-05-21T08:54:17.237Z,25.40
2019-05-21T08:55:22.426Z,25.40
2019-05-21T08:56:27.090Z,25.30
2019-05-21T08:57:32.494Z,25.10
2019-05-21T08:58:37.077Z,24.70
2019-05-21T08:59:42.213Z,24.60
2019-05-21T09:00:46.801Z,24.70
2019-05-21T09:01:52.092Z,24.90
2019-05-21T09:02:56.651Z,24.90
2019-05-21T09:04:01.776Z,24.80
2019-05-21T09:05:06.840Z,24.80
2019-05-21T09:06:12.094Z,24.70
2019-05-21T09:07:16.731Z,24.50
2019-05-21T09:08:21.894Z,24.30
2019-05-21T09:09:26.584Z,24.20
2019-05-21T09:10:31.827Z,24.20
2019-05-21T09:11:36.378Z,24.20
2019-05-21T09:12:41.578Z,24.40
2019-05-21T09:13:46.205Z,24.50
2019-05-21T09:14:51.673Z,24.40
2019-05-21T09:15:56.367Z,24.30
2019-05-21T09:17:01.458Z,24.10
2019-05-21T09:18:06.179Z,24.00
2019-05-21T09:19:11.300Z,23.90
2019-05-21T09:20:16.970Z,23.80
2019-05-21T09:21:22.131Z,23.40
2019-05-21T09:22:26.770Z,23.20
2019-05-21T09:23:32.038Z,23.10
2019-05-21T09:24:36.643Z,23.20
2019-05-21T09:25:41.811Z,23.20
2019-05-21T09:26:47.536Z,23.30
2019-05-21T09:27:52.740Z,23.30
2019-05-21T09:28:57.321Z,23.30
2019-05-21T09:30:02.446Z,23.30
2019-05-21T09:31:07.045Z,23.40
2019-05-21T09:32:12.207Z,23.30
2019-05-21T09:33:16.818Z,23.30
2019-05-21T09:34:22.050Z,23.10
2019-05-21T09:35:26.623Z,23.00
2019-05-21T09:36:31.796Z,23.10
2019-05-21T09:37:36.639Z,23.20
2019-05-21T09:38:41.902Z,23.20
2019-05-21T09:39:46.510Z,23.00
2019-05-21T09:40:53.118Z,23.00
2019-05-21T09:41:57.872Z,22.80
2019-05-21T09:43:03.089Z,22.70
2019-05-21T09:44:07.680Z,22.80
2019-05-21T09:45:13.939Z,22.90
2019-05-21T09:46:18.824Z,23.00
2019-05-21T09:47:24.027Z,23.10
2019-05-21T09:48:31.500Z,23.00
2019-05-21T09:49:39.582Z,22.90
2019-05-21T09:50:45.252Z,22.90
2019-05-21T09:51:50.384Z,22.80
2019-05-21T09:52:55.041Z,22.70
2019-05-21T09:54:00.196Z,22.60
2019-05-21T09:55:05.495Z,22.70
2019-05-21T09:56:28.204Z,22.90
2019-05-21T09:57:38.755Z,23.00
2019-05-21T09:58:45.948Z,23.20
2019-05-21T09:59:56.520Z,23.20
2019-05-21T10:01:15.372Z,23.00
2019-05-21T10:02:23.164Z,22.80
2019-05-21T10:03:29.828Z,22.80
2019-05-21T10:04:34.475Z,22.90
2019-05-21T10:05:39.695Z,23.00
2019-05-21T10:06:44.528Z,23.00
2019-05-21T10:07:49.728Z,23.00
2019-05-21T10:08:54.309Z,23.20
2019-05-21T10:09:59.568Z,23.30
2019-05-21T10:11:04.850Z,23.50
2019-05-21T10:12:10.169Z,23.50
2019-05-21T10:13:14.845Z,23.50
2019-05-21T10:14:19.986Z,23.50
2019-05-21T10:15:24.546Z,23.50
2019-05-21T10:16:29.683Z,23.50
2019-05-21T10:17:34.324Z,23.50
2019-05-21T10:18:39.440Z,23.50
2019-05-21T10:19:44.073Z,23.50
2019-05-21T10:20:49.209Z,23.60
2019-05-21T10:21:56.943Z,23.70
2019-05-21T10:23:00.758Z,23.70
2019-05-21T10:24:06.035Z,23.80
2019-05-21T10:25:11.409Z,23.70
2019-05-21T10:26:15.980Z,23.70
2019-05-21T10:27:21.107Z,23.80
2019-05-21T10:28:25.719Z,23.90
2019-05-21T10:29:31.954Z,24.00
2019-05-21T10:30:36.720Z,24.10
2019-05-21T10:31:41.958Z,24.10
2019-05-21T10:32:46.796Z,24.10
2019-05-21T10:33:52.028Z,24.10
2019-05-21T10:34:56.676Z,24.10
2019-05-21T10:36:01.810Z,23.90
2019-05-21T10:37:06.551Z,23.90
2019-05-21T10:38:11.670Z,23.80
2019-05-21T10:39:16.321Z,23.60
2019-05-21T10:40:21.897Z,23.40
2019-05-21T10:41:26.557Z,23.30
2019-05-21T10:42:31.750Z,23.40
2019-05-21T10:43:36.492Z,23.30
2019-05-21T10:44:41.731Z,23.30
2019-05-21T10:45:46.353Z,23.30
2019-05-21T10:46:51.605Z,23.50
2019-05-21T10:47:56.762Z,23.50
2019-05-21T10:49:01.876Z,23.50
2019-05-21T10:50:06.971Z,23.60
2019-05-21T10:51:12.329Z,23.70
2019-05-21T10:52:17.139Z,23.70
2019-05-21T10:53:22.352Z,23.70
2019-05-21T10:54:27.008Z,23.70
2019-05-21T10:55:32.095Z,23.80
2019-05-21T10:56:47.332Z,23.80
2019-05-21T10:57:43.478Z,23.80
2019-05-21T10:58:48.035Z,23.80
2019-05-21T10:59:53.165Z,23.70
2019-05-21T11:01:04.814Z,23.60
2019-05-21T11:02:20.049Z,23.70
2019-05-21T11:03:42.733Z,23.80
2019-05-21T11:05:06.387Z,23.80
2019-05-21T11:06:11.716Z,23.80
2019-05-21T11:07:17.811Z,23.80
2019-05-21T11:08:24.821Z,23.80
2019-05-21T11:09:29.455Z,23.70
2019-05-21T11:10:34.620Z,23.80
2019-05-21T11:11:58.483Z,23.90
2019-05-21T11:13:03.764Z,23.90
2019-05-21T11:14:08.339Z,24.10
2019-05-21T11:15:13.839Z,24.10
2019-05-21T11:16:18.505Z,24.10
2019-05-21T11:17:23.690Z,24.10
2019-05-21T11:18:28.288Z,24.10
2019-05-21T11:19:33.400Z,24.00
2019-05-21T11:20:37.973Z,24.00
2019-05-21T11:21:43.091Z,24.00
2019-05-21T11:22:47.707Z,23.90
2019-05-21T11:23:53.013Z,23.80
2019-05-21T11:24:57.754Z,23.70
2019-05-21T11:26:03.075Z,23.70
2019-05-21T11:27:07.865Z,23.70
2019-05-21T11:28:12.983Z,23.60
2019-05-21T11:29:17.559Z,23.60
2019-05-21T11:30:22.854Z,23.50
2019-05-21T11:31:27.623Z,23.60
2019-05-21T11:32:32.761Z,23.70
2019-05-21T11:33:37.409Z,23.80
2019-05-21T11:34:43.762Z,23.90
2019-05-21T11:35:48.535Z,24.00
2019-05-21T11:36:53.840Z,24.00
2019-05-21T11:37:58.563Z,24.10
2019-05-21T11:39:05.208Z,24.10
2019-05-21T11:40:10.582Z,24.10
2019-05-21T11:41:15.858Z,24.20
2019-05-21T11:42:20.592Z,24.30
2019-05-21T11:43:25.707Z,24.30
2019-05-21T11:44:30.385Z,24.20
2019-05-21T11:45:35.584Z,24.10
2019-05-21T11:46:40.151Z,24.10
2019-05-21T11:47:45.246Z,23.90
2019-05-21T11:48:49.823Z,23.80
2019-05-21T11:49:54.987Z,23.90
2019-05-21T11:50:59.597Z,23.80
2019-05-21T11:52:04.952Z,23.70
2019-05-21T11:53:09.537Z,23.70
2019-05-21T11:54:14.670Z,23.60
2019-05-21T11:55:19.263Z,23.60
2019-05-21T11:56:24.416Z,23.70
2019-05-21T11:57:29.013Z,23.60
2019-05-21T11:58:39.618Z,23.40
2019-05-21T11:59:40.400Z,23.40
2019-05-21T12:00:45.628Z,23.40
2019-05-21T12:01:50.237Z,23.40
2019-05-21T12:02:55.565Z,23.30
2019-05-21T12:04:00.149Z,23.20
2019-05-21T12:05:06.071Z,23.30
2019-05-21T12:06:10.810Z,23.20
2019-05-21T12:07:16.139Z,23.10
2019-05-21T12:08:20.798Z,23.10
2019-05-21T12:09:26.184Z,23.10
2019-05-21T12:10:30.771Z,23.10
2019-05-21T12:11:36.007Z,23.10
2019-05-21T12:12:40.590Z,23.00
2019-05-21T12:13:45.756Z,23.10
2019-05-21T12:14:50.363Z,23.10
2019-05-21T12:15:56.552Z,23.10
2019-05-21T12:17:01.125Z,23.20
2019-05-21T12:18:06.230Z,23.20
2019-05-21T12:19:10.799Z,23.30
2019-05-21T12:20:17.069Z,23.30
2019-05-21T12:21:21.650Z,23.30
2019-05-21T12:22:26.830Z,23.40
2019-05-21T12:23:31.580Z,23.50
2019-05-21T12:24:36.770Z,23.70
2019-05-21T12:25:41.474Z,23.80
2019-05-21T12:26:46.671Z,23.80
2019-05-21T12:27:51.369Z,23.80
2019-05-21T12:28:56.529Z,23.80
2019-05-21T12:30:01.078Z,23.70
2019-05-21T12:31:06.313Z,23.60
2019-05-21T12:32:12.020Z,23.50
2019-05-21T12:33:17.200Z,23.40
2019-05-21T12:34:21.893Z,23.50
2019-05-21T12:35:27.084Z,23.50
2019-05-21T12:36:31.666Z,23.50
2019-05-21T12:37:36.800Z,23.50
2019-05-21T12:38:41.403Z,23.50
2019-05-21T12:39:46.500Z,23.60
2019-05-21T12:40:51.060Z,23.70
2019-05-21T12:41:56.257Z,23.90
2019-05-21T12:43:00.974Z,24.00
2019-05-21T12:44:06.200Z,24.10
2019-05-21T12:45:11.600Z,24.10
2019-05-21T12:46:16.745Z,24.20
2019-05-21T12:47:21.409Z,24.30
2019-05-21T12:48:26.527Z,24.30
2019-05-21T12:49:31.111Z,24.40
2019-05-21T12:50:36.273Z,24.50
2019-05-21T12:51:40.857Z,24.50
2019-05-21T12:52:45.970Z,24.50
2019-05-21T12:53:50.554Z,24.50
2019-05-21T12:54:55.673Z,24.40
2019-05-21T12:56:00.228Z,24.30
2019-05-21T12:57:05.414Z,24.30
2019-05-21T12:58:10.374Z,24.30
2019-05-21T12:59:15.506Z,24.40
2019-05-21T13:00:20.863Z,24.40
2019-05-21T13:01:26.039Z,24.40
2019-05-21T13:02:30.687Z,24.40
2019-05-21T13:03:35.862Z,24.50
2019-05-21T13:04:40.463Z,24.50
2019-05-21T13:05:45.583Z,24.60
2019-05-21T13:06:50.333Z,24.60
2019-05-21T13:07:55.552Z,24.60
2019-05-21T13:09:00.467Z,24.50
2019-05-21T13:10:07.040Z,24.60
2019-05-21T13:11:11.686Z,24.60
2019-05-21T13:12:16.880Z,24.70
2019-05-21T13:13:21.523Z,24.60
2019-05-21T13:14:26.761Z,24.60
2019-05-21T13:15:31.344Z,24.60
2019-05-21T13:16:36.488Z,24.50
2019-05-21T13:17:41.055Z,24.60
2019-05-21T13:18:46.363Z,24.60
2019-05-21T13:19:50.945Z,24.60
2019-05-21T13:20:56.181Z,24.60
2019-05-21T13:22:00.872Z,24.80
2019-05-21T13:23:06.204Z,24.90
2019-05-21T13:24:10.832Z,24.90
2019-05-21T13:25:16.037Z,24.90
2019-05-21T13:26:20.603Z,24.90
2019-05-21T13:27:26.203Z,24.90
2019-05-21T13:28:30.853Z,25.00
2019-05-21T13:29:36.018Z,25.10
2019-05-21T13:30:40.712Z,25.10
2019-05-21T13:31:45.923Z,25.20
2019-05-21T13:32:50.542Z,25.30
2019-05-21T13:33:55.656Z,25.30
2019-05-21T13:35:00.246Z,25.30
2019-05-21T13:36:05.613Z,25.30
2019-05-21T13:37:10.269Z,25.40
2019-05-21T13:38:15.407Z,25.40
2019-05-21T13:39:20.139Z,25.40
2019-05-21T13:40:26.199Z,25.40
2019-05-21T13:41:30.940Z,25.40
2019-05-21T13:42:36.101Z,25.40
2019-05-21T13:43:40.688Z,25.40
2019-05-21T13:44:45.912Z,25.40
2019-05-21T13:45:50.607Z,25.40
2019-05-21T13:46:55.850Z,25.50
2019-05-21T13:48:00.570Z,25.50
2019-05-21T13:49:05.840Z,25.40
2019-05-21T13:50:12.398Z,25.50
2019-05-21T13:51:17.652Z,25.50
2019-05-21T13:52:22.428Z,25.60
2019-05-21T13:53:27.616Z,25.50
2019-05-21T13:54:32.233Z,25.30
2019-05-21T13:55:37.476Z,25.00
2019-05-21T13:56:42.077Z,24.90
2019-05-21T13:57:47.207Z,24.80
2019-05-21T13:58:52.866Z,24.60
2019-05-21T13:59:57.990Z,24.40
2019-05-21T14:01:02.739Z,24.20
2019-05-21T14:02:09.213Z,24.20
2019-05-21T14:03:14.378Z,24.20
2019-05-21T14:04:19.713Z,24.30
2019-05-21T14:05:24.364Z,24.20
2019-05-21T14:06:29.509Z,24.10
2019-05-21T14:07:34.240Z,24.00